createdAt,value
2016-05-25T00:00:10.672Z,0
2016-05-25T00:01:10.456Z,0
2016-05-25T00:02:10.427Z,0
2016-05-25T00:03:10.680Z,0
2016-05-25T00:04:10.871Z,0
2016-05-25T00:05:11.045Z,0
2016-05-25T00:06:10.267Z,0
2016-05-25T00:07:10.269Z,0
2016-05-25T00:08:10.444Z,0
2016-05-25T00:09:10.260Z,0
2016-05-25T00:10:10.777Z,0
2016-05-25T00:11:10.827Z,0
2016-05-25T00:12:09.845Z,0
2016-05-25T00:13:09.848Z,0
2016-05-25T00:14:10.507Z,0
2016-05-25T00:15:10.556Z,0
2016-05-25T00:16:12.857Z,0
2016-05-25T00:17:10.421Z,0
2016-05-25T00:18:11.518Z,0
2016-05-25T00:19:14.786Z,0
2016-05-25T00:20:13.960Z,0
2016-05-25T00:21:13.323Z,0
2016-05-25T00:22:14.372Z,0
2016-05-25T00:23:14.593Z,0
2016-05-25T00:24:12.862Z,0
2016-05-25T00:25:14.146Z,0
2016-05-25T00:26:13.273Z,0
2016-05-25T00:27:13.526Z,0
2016-05-25T00:28:13.779Z,0
2016-05-25T00:29:13.939Z,0
2016-05-25T00:30:13.378Z,0
2016-05-25T00:31:13.756Z,0
2016-05-25T00:32:12.914Z,0
2016-05-25T00:33:13.011Z,0
2016-05-25T00:34:13.639Z,0
2016-05-25T00:35:13.657Z,0
2016-05-25T00:36:12.488Z,0
2016-05-25T00:37:13.177Z,0
2016-05-25T00:38:13.244Z,0
2016-05-25T00:39:09.544Z,0
2016-05-25T00:40:10.452Z,0
2016-05-25T00:41:09.689Z,0
2016-05-25T00:42:09.566Z,0
2016-05-25T00:43:09.429Z,0
2016-05-25T00:44:09.774Z,0
2016-05-25T00:45:09.637Z,0
2016-05-25T00:46:11.499Z,0
2016-05-25T00:47:09.471Z,0
2016-05-25T00:48:09.271Z,0
2016-05-25T00:49:09.523Z,0
2016-05-25T00:50:09.182Z,0
2016-05-25T00:51:09.434Z,0
2016-05-25T00:52:10.984Z,0
2016-05-25T00:53:09.253Z,0
2016-05-25T00:54:09.145Z,0
2016-05-25T00:55:09.118Z,0
2016-05-25T00:56:09.307Z,0
2016-05-25T00:57:09.184Z,0
2016-05-25T00:58:09.734Z,0
2016-05-25T00:59:09.519Z,0
2016-05-25T01:00:08.850Z,0
2016-05-25T01:01:09.211Z,0
2016-05-25T01:02:09.698Z,0
2016-05-25T01:03:09.717Z,0
2016-05-25T01:04:09.578Z,0
2016-05-25T01:05:09.378Z,0
2016-05-25T01:06:08.927Z,0
2016-05-25T01:07:09.071Z,0
2016-05-25T01:08:08.902Z,0
2016-05-25T01:09:08.655Z,0
2016-05-25T01:10:09.377Z,0
2016-05-25T01:11:08.863Z,0
2016-05-25T01:12:08.757Z,0
2016-05-25T01:13:09.118Z,0
2016-05-25T01:14:08.668Z,0
2016-05-25T01:15:08.796Z,0
2016-05-25T01:16:09.704Z,0
2016-05-25T01:17:08.910Z,0
2016-05-25T01:18:08.976Z,0
2016-05-25T01:19:24.244Z,0
2016-05-25T01:20:08.450Z,0
2016-05-25T01:21:08.374Z,0
2016-05-25T01:22:09.143Z,0
2016-05-25T01:23:08.911Z,0
2016-05-25T01:24:08.601Z,0
2016-05-25T01:25:08.276Z,0
2016-05-25T01:26:08.716Z,0
2016-05-25T01:27:08.454Z,0
2016-05-25T01:28:09.003Z,0
2016-05-25T01:29:08.381Z,0
2016-05-25T01:30:08.758Z,0
2016-05-25T01:31:09.136Z,0
2016-05-25T01:32:09.264Z,0
2016-05-25T01:33:08.500Z,0
2016-05-25T01:34:08.956Z,0
2016-05-25T01:35:08.209Z,0
2016-05-25T01:36:08.555Z,0
2016-05-25T01:37:08.699Z,0
2016-05-25T01:38:08.623Z,0
2016-05-25T01:39:08.282Z,0
2016-05-25T01:40:08.942Z,0
2016-05-25T01:41:08.428Z,0
2016-05-25T01:42:07.900Z,0
2016-05-25T01:43:08.137Z,0
2016-05-25T01:45:08.064Z,0
2016-05-25T01:46:09.020Z,0
2016-05-25T01:47:08.398Z,0
2016-05-25T01:48:08.479Z,0
2016-05-25T01:49:07.841Z,0
2016-05-25T01:50:08.171Z,0
2016-05-25T01:51:07.751Z,0
2016-05-25T01:52:08.568Z,0
2016-05-25T01:53:07.945Z,0
2016-05-25T01:54:07.932Z,0
2016-05-25T01:55:07.684Z,0
2016-05-25T01:56:07.718Z,0
2016-05-25T01:57:07.628Z,0
2016-05-25T01:58:08.458Z,0
2016-05-25T01:59:07.711Z,0
2016-05-25T02:00:07.636Z,0
2016-05-25T02:01:08.076Z,0
2016-05-25T02:02:08.048Z,0
2016-05-25T02:03:07.503Z,0
2016-05-25T02:04:08.303Z,0
2016-05-25T02:05:08.149Z,0
2016-05-25T02:06:07.558Z,0
2016-05-25T02:07:07.530Z,0
2016-05-25T02:08:07.329Z,0
2016-05-25T02:09:07.832Z,0
2016-05-25T02:10:07.803Z,0
2016-05-25T02:11:07.119Z,0
2016-05-25T02:12:07.450Z,0
2016-05-25T02:13:07.343Z,0
2016-05-25T02:14:07.767Z,0
2016-05-25T02:15:07.598Z,0
2016-05-25T02:16:07.632Z,0
2016-05-25T02:17:07.118Z,0
2016-05-25T02:18:07.277Z,0
2016-05-25T02:19:07.249Z,0
2016-05-25T02:20:07.127Z,0
2016-05-25T02:21:07.082Z,0
2016-05-25T02:22:08.210Z,0
2016-05-25T02:23:07.760Z,0
2016-05-25T02:24:07.169Z,0
2016-05-25T02:25:06.765Z,0
2016-05-25T02:26:07.221Z,0
2016-05-25T02:27:07.786Z,0
2016-05-25T02:28:07.492Z,0
2016-05-25T02:29:07.010Z,0
2016-05-25T02:30:07.450Z,0
2016-05-25T02:31:07.984Z,0
2016-05-25T02:32:06.644Z,0
2016-05-25T02:33:07.084Z,0
2016-05-25T02:34:07.478Z,0
2016-05-25T02:35:07.058Z,0
2016-05-25T02:36:06.733Z,0
2016-05-25T02:37:07.157Z,0
2016-05-25T02:38:06.675Z,0
2016-05-25T02:39:06.849Z,0
2016-05-25T02:40:07.306Z,0
2016-05-25T02:41:06.808Z,0
2016-05-25T02:42:06.936Z,0
2016-05-25T02:43:07.049Z,0
2016-05-25T02:44:06.941Z,0
2016-05-25T02:45:06.804Z,0
2016-05-25T02:46:07.166Z,0
2016-05-25T02:47:06.934Z,0
2016-05-25T02:48:06.577Z,0
2016-05-25T02:49:06.439Z,0
2016-05-25T02:50:06.707Z,0
2016-05-25T02:51:06.992Z,0
2016-05-25T02:52:07.118Z,0
2016-05-25T02:53:06.357Z,0
2016-05-25T02:54:06.687Z,0
2016-05-25T02:55:06.252Z,0
2016-05-25T02:56:06.068Z,0
2016-05-25T02:57:06.820Z,0
2016-05-25T02:58:06.964Z,0
2016-05-25T02:59:06.153Z,0
2016-05-25T03:00:06.422Z,0
2016-05-25T03:01:06.456Z,0
2016-05-25T03:02:06.553Z,0
2016-05-25T03:03:07.102Z,0
2016-05-25T03:04:06.855Z,0
2016-05-25T03:05:06.825Z,0
2016-05-25T03:06:06.376Z,0
2016-05-25T03:07:06.925Z,0
2016-05-25T03:08:07.100Z,0
2016-05-25T03:09:06.164Z,0
2016-05-25T03:10:07.199Z,0
2016-05-25T03:11:06.279Z,0
2016-05-25T03:12:06.127Z,0
2016-05-25T03:13:05.629Z,0
2016-05-25T03:14:06.632Z,0
2016-05-25T03:15:06.259Z,0
2016-05-25T03:16:06.308Z,0
2016-05-25T03:17:06.890Z,0
2016-05-25T03:18:05.658Z,0
2016-05-25T03:19:05.895Z,0
2016-05-25T03:20:05.866Z,0
2016-05-25T03:21:05.713Z,0
2016-05-25T03:22:05.654Z,0
2016-05-25T03:23:05.843Z,0
2016-05-25T03:24:05.940Z,0
2016-05-25T03:25:05.568Z,0
2016-05-25T03:26:05.493Z,0
2016-05-25T03:27:05.307Z,0
2016-05-25T03:28:05.685Z,0
2016-05-25T03:29:05.953Z,0
2016-05-25T03:30:05.425Z,0
2016-05-25T03:31:05.678Z,0
2016-05-25T03:32:06.164Z,0
2016-05-25T03:33:05.964Z,0
2016-05-25T03:34:06.279Z,0
2016-05-25T03:35:05.578Z,0
2016-05-25T03:36:05.925Z,0
2016-05-25T03:37:05.162Z,0
2016-05-25T03:38:05.227Z,0
2016-05-25T03:39:05.980Z,0
2016-05-25T03:40:05.498Z,0
2016-05-25T03:41:05.735Z,0
2016-05-25T03:42:04.860Z,0
2016-05-25T03:43:05.163Z,0
2016-05-25T03:45:42.371Z,0
2016-05-25T03:46:28.780Z,0
2016-05-25T03:47:28.877Z,0
2016-05-25T03:48:28.067Z,0
2016-05-25T03:49:28.929Z,0
2016-05-25T03:50:29.275Z,0
2016-05-25T03:51:28.981Z,0
2016-05-25T03:52:28.749Z,0
2016-05-25T03:53:28.471Z,0
2016-05-25T03:54:28.489Z,0
2016-05-25T03:55:28.321Z,0
2016-05-25T03:56:28.401Z,0
2016-05-25T03:57:27.873Z,0
2016-05-25T03:58:28.032Z,0
2016-05-25T03:59:28.566Z,0
2016-05-25T04:00:28.177Z,0
2016-05-25T04:01:28.570Z,0
2016-05-25T04:02:28.168Z,0
2016-05-25T04:03:29.248Z,0
2016-05-25T04:04:28.345Z,0
2016-05-25T04:05:27.801Z,0
2016-05-25T04:06:28.553Z,0
2016-05-25T04:07:28.758Z,0
2016-05-25T04:08:28.543Z,0
2016-05-25T04:09:28.233Z,0
2016-05-25T04:10:27.736Z,0
2016-05-25T04:11:27.753Z,0
2016-05-25T04:12:28.163Z,0
2016-05-25T04:13:29.025Z,0
2016-05-25T04:14:27.419Z,0
2016-05-25T04:15:28.046Z,0
2016-05-25T04:16:27.924Z,0
2016-05-25T04:17:27.613Z,0
2016-05-25T04:18:27.757Z,0
2016-05-25T04:19:27.939Z,0
2016-05-25T04:20:27.575Z,0
2016-05-25T04:21:27.492Z,0
2016-05-25T04:22:28.003Z,0
2016-05-25T04:24:27.603Z,0
2016-05-25T04:25:28.271Z,0
2016-05-25T04:26:27.423Z,0
2016-05-25T04:27:27.684Z,0
2016-05-25T04:28:28.242Z,0
2016-05-25T04:29:41.154Z,0
2016-05-25T04:30:27.441Z,0
2016-05-25T04:31:28.760Z,0
2016-05-25T04:32:28.077Z,0
2016-05-25T04:33:27.239Z,0
2016-05-25T04:34:29.665Z,0
2016-05-25T04:35:27.918Z,0
2016-05-25T04:36:27.392Z,0
2016-05-25T04:37:27.614Z,0
2016-05-25T04:38:27.322Z,0
2016-05-25T04:39:27.934Z,0
2016-05-25T04:40:27.796Z,0
2016-05-25T04:41:27.143Z,0
2016-05-25T04:42:27.115Z,0
2016-05-25T04:43:28.398Z,0
2016-05-25T04:44:26.887Z,0
2016-05-25T04:45:27.576Z,0
2016-05-25T04:46:27.892Z,0
2016-05-25T04:47:27.442Z,0
2016-05-25T04:48:27.022Z,0
2016-05-25T04:49:27.853Z,0
2016-05-25T04:50:27.028Z,0
2016-05-25T04:52:26.908Z,0
2016-05-25T04:53:26.800Z,0
2016-05-25T04:54:26.789Z,0
2016-05-25T04:55:27.275Z,0
2016-05-25T04:56:26.855Z,0
2016-05-25T04:57:27.327Z,0
2016-05-25T04:58:26.674Z,0
2016-05-25T04:59:26.192Z,0
2016-05-25T05:00:27.023Z,0
2016-05-25T05:01:27.322Z,0
2016-05-25T05:02:26.778Z,0
2016-05-25T05:03:26.719Z,0
2016-05-25T05:04:26.612Z,0
2016-05-25T05:05:27.161Z,0
2016-05-25T05:06:27.179Z,0
2016-05-25T05:07:27.791Z,0
2016-05-25T05:08:26.685Z,0
2016-05-25T05:09:40.531Z,0
2016-05-25T05:10:27.299Z,0
2016-05-25T05:11:27.084Z,0
2016-05-25T05:12:26.509Z,0
2016-05-25T05:13:27.136Z,0
2016-05-25T05:14:27.310Z,0
2016-05-25T05:15:26.782Z,0
2016-05-25T05:16:26.566Z,0
2016-05-25T05:17:41.881Z,0
2016-05-25T05:18:27.181Z,0
2016-05-25T05:19:27.105Z,0
2016-05-25T05:20:26.359Z,0
2016-05-25T05:21:27.001Z,0
2016-05-25T05:22:26.676Z,0
2016-05-25T05:23:26.663Z,0
2016-05-25T05:24:26.259Z,0
2016-05-25T05:25:26.606Z,0
2016-05-25T05:26:26.172Z,0
2016-05-25T05:27:26.455Z,0
2016-05-25T05:28:26.739Z,0
2016-05-25T05:29:27.116Z,0
2016-05-25T05:30:29.588Z,0
2016-05-25T05:31:27.153Z,0
2016-05-25T05:32:26.813Z,0
2016-05-25T05:33:26.846Z,0
2016-05-25T05:34:26.583Z,0
2016-05-25T05:35:26.367Z,0
2016-05-25T05:36:26.683Z,0
2016-05-25T05:37:26.919Z,0
2016-05-25T05:38:26.625Z,0
2016-05-25T05:39:26.252Z,0
2016-05-25T05:40:26.396Z,0
2016-05-25T05:41:26.868Z,0
2016-05-25T05:42:26.307Z,0
2016-05-25T05:43:26.560Z,0
2016-05-25T05:44:26.031Z,0
2016-05-25T05:45:25.832Z,0
2016-05-25T05:46:26.912Z,0
2016-05-25T05:47:26.071Z,0
2016-05-25T05:48:25.809Z,0
2016-05-25T05:49:25.951Z,0
2016-05-25T05:50:25.470Z,0
2016-05-25T05:51:26.332Z,0
2016-05-25T05:52:26.178Z,0
2016-05-25T05:53:25.900Z,0
2016-05-25T05:54:26.152Z,0
2016-05-25T05:55:26.343Z,0
2016-05-25T05:56:26.377Z,0
2016-05-25T05:57:26.426Z,0
2016-05-25T05:58:26.539Z,0
2016-05-25T05:59:25.431Z,0
2016-05-25T06:00:25.403Z,0
2016-05-25T06:01:26.624Z,0
2016-05-25T06:02:26.018Z,0
2016-05-25T06:03:25.661Z,0
2016-05-25T06:04:25.523Z,0
2016-05-25T06:05:25.291Z,0
2016-05-25T06:06:25.404Z,0
2016-05-25T06:07:25.937Z,0
2016-05-25T06:08:25.956Z,0
2016-05-25T06:09:26.037Z,0
2016-05-25T06:10:25.852Z,0
2016-05-25T06:11:25.683Z,0
2016-05-25T06:12:25.341Z,0
2016-05-25T06:13:25.579Z,0
2016-05-25T06:14:25.112Z,0
2016-05-25T06:15:25.334Z,0
2016-05-25T06:16:24.181Z,0
2016-05-25T06:17:25.620Z,0
2016-05-25T06:18:25.890Z,0
2016-05-25T06:20:25.316Z,0
2016-05-25T06:21:25.070Z,0
2016-05-25T06:22:25.228Z,0
2016-05-25T06:23:28.309Z,0
2016-05-25T06:24:25.812Z,0
2016-05-25T06:25:25.408Z,0
2016-05-25T06:26:25.223Z,0
2016-05-25T06:27:26.288Z,0
2016-05-25T06:28:29.963Z,0
2016-05-25T06:29:25.261Z,5
2016-05-25T06:30:25.483Z,5
2016-05-25T06:31:25.174Z,5
2016-05-25T06:32:26.005Z,5
2016-05-25T06:33:25.023Z,5
2016-05-25T06:34:24.886Z,5
2016-05-25T06:35:24.560Z,5
2016-05-25T06:36:24.422Z,5
2016-05-25T06:37:25.113Z,5
2016-05-25T06:38:29.583Z,0
2016-05-25T06:39:24.821Z,0
2016-05-25T06:40:24.573Z,0
2016-05-25T06:41:25.561Z,0
2016-05-25T06:42:24.766Z,0
2016-05-25T06:43:24.425Z,0
2016-05-25T06:44:24.318Z,0
2016-05-25T06:45:25.102Z,0
2016-05-25T06:46:24.464Z,0
2016-05-25T06:47:25.014Z,0
2016-05-25T06:48:29.345Z,0
2016-05-25T06:49:24.831Z,0
2016-05-25T06:50:24.788Z,0
2016-05-25T06:51:24.900Z,0
2016-05-25T06:52:24.120Z,0
2016-05-25T06:53:27.546Z,0
2016-05-25T06:54:24.017Z,0
2016-05-25T06:55:24.942Z,0
2016-05-25T06:56:24.054Z,0
2016-05-25T06:57:24.494Z,0
2016-05-25T06:58:25.575Z,0
2016-05-25T06:59:24.624Z,0
2016-05-25T07:00:23.892Z,0
2016-05-25T07:01:24.458Z,0
2016-05-25T07:02:24.070Z,0
2016-05-25T07:03:25.228Z,0
2016-05-25T07:04:23.966Z,0
2016-05-25T07:05:23.969Z,0
2016-05-25T07:06:24.033Z,0
2016-05-25T07:07:24.130Z,0
2016-05-25T07:08:23.742Z,0
2016-05-25T07:09:24.213Z,0
2016-05-25T07:10:24.482Z,0
2016-05-25T07:11:23.532Z,0
2016-05-25T07:12:24.174Z,0
2016-05-25T07:13:30.287Z,0
2016-05-25T07:14:23.774Z,0
2016-05-25T07:15:24.495Z,0
2016-05-25T07:16:24.248Z,5
2016-05-25T07:17:25.126Z,5
2016-05-25T07:18:25.535Z,5
2016-05-25T07:19:23.865Z,5
2016-05-25T07:20:23.821Z,5
2016-05-25T07:21:23.731Z,5
2016-05-25T07:22:23.749Z,5
2016-05-25T07:23:23.861Z,5
2016-05-25T07:24:24.457Z,5
2016-05-25T07:25:24.256Z,5
2016-05-25T07:26:25.025Z,5
2016-05-25T07:27:24.168Z,5
2016-05-25T07:28:28.202Z,5
2016-05-25T07:29:23.673Z,5
2016-05-25T07:30:23.301Z,5
2016-05-25T07:31:23.414Z,5
2016-05-25T07:32:23.697Z,5
2016-05-25T07:33:24.466Z,5
2016-05-25T07:34:23.812Z,5
2016-05-25T07:35:23.143Z,5
2016-05-25T07:36:23.772Z,5
2016-05-25T07:37:24.399Z,5
2016-05-25T07:38:24.495Z,5
2016-05-25T07:39:23.638Z,5
2016-05-25T07:40:23.407Z,5
2016-05-25T07:41:23.034Z,5
2016-05-25T07:42:23.240Z,5
2016-05-25T07:43:23.430Z,5
2016-05-25T07:44:23.371Z,5
2016-05-25T07:45:24.341Z,5
2016-05-25T07:46:23.579Z,5
2016-05-25T07:47:25.847Z,5
2016-05-25T07:48:25.178Z,5
2016-05-25T07:49:23.275Z,5
2016-05-25T07:50:23.293Z,10
2016-05-25T07:51:23.483Z,5
2016-05-25T07:52:26.673Z,5
2016-05-25T07:53:22.957Z,5
2016-05-25T07:54:23.757Z,5
2016-05-25T07:55:23.885Z,5
2016-05-25T07:56:22.371Z,5
2016-05-25T07:57:29.592Z,10
2016-05-25T07:58:23.409Z,10
2016-05-25T07:59:22.926Z,10
2016-05-25T08:00:23.163Z,10
2016-05-25T08:01:23.556Z,15
2016-05-25T08:02:26.716Z,15
2016-05-25T08:03:22.984Z,15
2016-05-25T08:04:23.081Z,15
2016-05-25T08:05:23.770Z,20
2016-05-25T08:06:24.555Z,20
2016-05-25T08:07:23.745Z,20
2016-05-25T08:08:23.685Z,20
2016-05-25T08:09:23.438Z,25
2016-05-25T08:10:22.472Z,25
2016-05-25T08:11:22.772Z,25
2016-05-25T08:12:24.633Z,20
2016-05-25T08:13:25.260Z,20
2016-05-25T08:14:22.732Z,20
2016-05-25T08:15:23.266Z,20
2016-05-25T08:16:22.113Z,20
2016-05-25T08:17:23.725Z,15
2016-05-25T08:18:25.196Z,10
2016-05-25T08:19:22.840Z,10
2016-05-25T08:20:21.871Z,10
2016-05-25T08:21:22.454Z,10
2016-05-25T08:22:23.254Z,5
2016-05-25T08:23:22.020Z,5
2016-05-25T08:24:22.071Z,5
2016-05-25T08:25:22.637Z,5
2016-05-25T08:26:22.043Z,5
2016-05-25T08:27:24.751Z,5
2016-05-25T08:28:22.095Z,5
2016-05-25T08:29:22.036Z,5
2016-05-25T08:30:21.945Z,5
2016-05-25T08:31:22.653Z,5
2016-05-25T08:32:25.172Z,5
2016-05-25T08:33:23.065Z,5
2016-05-25T08:34:23.567Z,5
2016-05-25T08:35:22.508Z,5
2016-05-25T08:36:22.445Z,5
2016-05-25T08:37:22.623Z,5
2016-05-25T08:38:35.672Z,5
2016-05-25T08:39:22.281Z,5
2016-05-25T08:40:22.880Z,5
2016-05-25T08:41:22.333Z,5
2016-05-25T08:42:25.370Z,5
2016-05-25T08:43:22.355Z,5
2016-05-25T08:44:22.169Z,5
2016-05-25T08:45:21.672Z,5
2016-05-25T08:46:22.472Z,5
2016-05-25T08:47:25.508Z,10
2016-05-25T08:48:22.133Z,10
2016-05-25T08:49:23.045Z,10
2016-05-25T08:50:21.482Z,10
2016-05-25T08:51:22.251Z,10
2016-05-25T08:52:23.772Z,10
2016-05-25T08:53:22.382Z,10
2016-05-25T08:54:21.931Z,10
2016-05-25T08:55:22.324Z,10
2016-05-25T08:56:21.702Z,10
2016-05-25T08:57:23.457Z,10
2016-05-25T08:58:21.239Z,10
2016-05-25T08:59:22.226Z,10
2016-05-25T09:00:21.370Z,10
2016-05-25T09:01:21.747Z,10
2016-05-25T09:02:25.346Z,10
2016-05-25T09:03:22.971Z,10
2016-05-25T09:04:21.864Z,10
2016-05-25T09:05:21.007Z,5
2016-05-25T09:06:20.979Z,5
2016-05-25T09:07:22.309Z,10
2016-05-25T09:08:22.984Z,10
2016-05-25T09:09:21.065Z,10
2016-05-25T09:10:20.864Z,10
2016-05-25T09:11:21.258Z,10
2016-05-25T09:12:21.527Z,10
2016-05-25T09:13:21.264Z,10
2016-05-25T09:14:20.938Z,15
2016-05-25T09:15:20.988Z,10
2016-05-25T09:16:20.663Z,10
2016-05-25T09:17:24.557Z,10
2016-05-25T09:18:20.932Z,10
2016-05-25T09:19:20.764Z,10
2016-05-25T09:20:20.923Z,10
2016-05-25T09:21:20.926Z,10
2016-05-25T09:22:22.335Z,10
2016-05-25T09:23:20.994Z,10
2016-05-25T09:24:20.762Z,10
2016-05-25T09:25:20.937Z,10
2016-05-25T09:26:20.970Z,10
2016-05-25T09:27:22.817Z,10
2016-05-25T09:28:20.662Z,10
2016-05-25T09:29:23.743Z,10
2016-05-25T09:30:21.700Z,10
2016-05-25T09:31:20.624Z,10
2016-05-25T09:32:22.440Z,10
2016-05-25T09:33:23.051Z,10
2016-05-25T09:34:21.461Z,10
2016-05-25T09:35:20.979Z,10
2016-05-25T09:36:20.606Z,10
2016-05-25T09:37:21.844Z,10
2016-05-25T09:38:20.783Z,10
2016-05-25T09:39:20.381Z,10
2016-05-25T09:40:20.477Z,10
2016-05-25T09:41:35.108Z,10
2016-05-25T09:42:20.686Z,10
2016-05-25T09:43:20.986Z,10
2016-05-25T09:44:20.300Z,10
2016-05-25T09:45:21.005Z,10
2016-05-25T09:46:20.836Z,10
2016-05-25T09:47:21.042Z,10
2016-05-25T09:48:20.811Z,10
2016-05-25T09:49:20.422Z,10
2016-05-25T09:50:20.363Z,10
2016-05-25T09:51:20.975Z,10
2016-05-25T09:52:20.446Z,10
2016-05-25T09:53:21.262Z,10
2016-05-25T09:54:19.874Z,10
2016-05-25T09:55:20.923Z,10
2016-05-25T09:56:20.816Z,15
2016-05-25T09:57:22.115Z,15
2016-05-25T09:58:20.244Z,15
2016-05-25T09:59:20.012Z,15
2016-05-25T10:00:20.248Z,15
2016-05-25T10:01:20.767Z,15
2016-05-25T10:02:22.645Z,15
2016-05-25T10:03:20.414Z,15
2016-05-25T10:04:20.119Z,15
2016-05-25T10:05:20.309Z,15
2016-05-25T10:06:20.750Z,15
2016-05-25T10:07:20.424Z,15
2016-05-25T10:08:20.302Z,15
2016-05-25T10:09:20.336Z,15
2016-05-25T10:10:19.776Z,15
2016-05-25T10:11:20.044Z,20
2016-05-25T10:12:20.297Z,20
2016-05-25T10:13:20.847Z,20
2016-05-25T10:14:19.802Z,20
2016-05-25T10:15:20.242Z,20
2016-05-25T10:16:19.980Z,20
2016-05-25T10:17:20.295Z,20
2016-05-25T10:18:19.783Z,20
2016-05-25T10:19:19.878Z,20
2016-05-25T10:20:21.302Z,25
2016-05-25T10:21:33.871Z,25
2016-05-25T10:22:20.043Z,25
2016-05-25T10:23:20.046Z,25
2016-05-25T10:24:19.235Z,25
2016-05-25T10:25:22.364Z,25
2016-05-25T10:26:19.694Z,25
2016-05-25T10:27:32.857Z,25
2016-05-25T10:28:20.153Z,20
2016-05-25T10:29:20.202Z,20
2016-05-25T10:30:18.876Z,20
2016-05-25T10:31:19.770Z,20
2016-05-25T10:32:18.648Z,20
2016-05-25T10:33:19.948Z,20
2016-05-25T10:34:19.403Z,20
2016-05-25T10:35:19.765Z,15
2016-05-25T10:36:19.424Z,15
2016-05-25T10:37:20.130Z,15
2016-05-25T10:38:20.117Z,15
2016-05-25T10:39:19.682Z,15
2016-05-25T10:40:20.169Z,15
2016-05-25T10:41:19.391Z,15
2016-05-25T10:42:18.831Z,15
2016-05-25T10:43:19.193Z,15
2016-05-25T10:44:19.649Z,15
2016-05-25T10:46:19.935Z,10
2016-05-25T10:47:19.016Z,10
2016-05-25T10:48:18.816Z,10
2016-05-25T10:49:20.006Z,10
2016-05-25T10:50:18.758Z,10
2016-05-25T10:51:18.871Z,10
2016-05-25T10:52:18.889Z,10
2016-05-25T10:53:18.642Z,10
2016-05-25T10:54:46.194Z,10
2016-05-25T10:55:19.710Z,10
2016-05-25T10:56:21.713Z,10
2016-05-25T10:57:19.590Z,10
2016-05-25T10:58:18.655Z,10
2016-05-25T10:59:19.157Z,15
2016-05-25T11:00:20.285Z,15
2016-05-25T11:01:21.616Z,15
2016-05-25T11:02:22.275Z,15
2016-05-25T11:03:18.951Z,15
2016-05-25T11:04:18.249Z,20
2016-05-25T11:05:19.018Z,20
2016-05-25T11:06:19.318Z,20
2016-05-25T11:07:18.789Z,20
2016-05-25T11:08:18.135Z,20
2016-05-25T11:09:19.028Z,25
2016-05-25T11:10:18.609Z,25
2016-05-25T11:11:18.253Z,25
2016-05-25T11:12:21.225Z,25
2016-05-25T11:13:18.445Z,20
2016-05-25T11:14:18.119Z,20
2016-05-25T11:15:19.388Z,20
2016-05-25T11:16:18.391Z,20
2016-05-25T11:17:20.691Z,25
2016-05-25T11:18:17.912Z,25
2016-05-25T11:19:18.306Z,25
2016-05-25T11:20:17.980Z,25
2016-05-25T11:21:18.185Z,25
2016-05-25T11:22:19.892Z,25
2016-05-25T11:23:18.082Z,25
2016-05-25T11:24:18.491Z,30
2016-05-25T11:25:18.665Z,25
2016-05-25T11:26:17.794Z,30
2016-05-25T11:27:19.421Z,30
2016-05-25T11:28:17.704Z,30
2016-05-25T11:29:17.723Z,35
2016-05-25T11:30:18.632Z,35
2016-05-25T11:31:19.321Z,35
2016-05-25T11:32:19.856Z,40
2016-05-25T11:33:17.968Z,40
2016-05-25T11:34:21.237Z,35
2016-05-25T11:35:18.302Z,25
2016-05-25T11:36:18.570Z,25
2016-05-25T11:37:19.853Z,25
2016-05-25T11:38:17.560Z,25
2016-05-25T11:39:17.593Z,20
2016-05-25T11:40:17.862Z,20
2016-05-25T11:41:17.787Z,20
2016-05-25T11:42:20.164Z,20
2016-05-25T11:43:17.839Z,20
2016-05-25T11:44:17.435Z,20
2016-05-25T11:45:18.609Z,20
2016-05-25T11:46:18.019Z,20
2016-05-25T11:47:18.459Z,20
2016-05-25T11:48:17.368Z,20
2016-05-25T11:49:17.027Z,20
2016-05-25T11:50:17.280Z,20
2016-05-25T11:51:17.922Z,20
2016-05-25T11:52:18.332Z,25
2016-05-25T11:53:17.741Z,25
2016-05-25T11:54:17.696Z,25
2016-05-25T11:55:17.855Z,25
2016-05-25T11:56:18.030Z,25
2016-05-25T11:57:17.157Z,25
2016-05-25T11:58:17.441Z,25
2016-05-25T11:59:17.632Z,25
2016-05-25T12:00:20.666Z,20
2016-05-25T12:01:17.043Z,20
2016-05-25T12:04:17.115Z,25
2016-05-25T12:05:16.820Z,30
2016-05-25T12:06:17.119Z,25
2016-05-25T12:07:17.590Z,25
2016-05-25T12:08:17.156Z,25
2016-05-25T12:09:17.159Z,20
2016-05-25T12:10:17.162Z,20
2016-05-25T12:11:17.258Z,20
2016-05-25T12:12:17.166Z,20
2016-05-25T12:13:16.670Z,20
2016-05-25T12:14:17.125Z,25
2016-05-25T12:15:21.034Z,25
2016-05-25T12:16:17.646Z,25
2016-05-25T12:17:20.633Z,30
2016-05-25T12:18:17.480Z,30
2016-05-25T12:19:16.858Z,30
2016-05-25T12:20:17.173Z,30
2016-05-25T12:21:16.847Z,30
2016-05-25T12:23:16.775Z,55
2016-05-25T12:24:16.886Z,55
2016-05-25T12:25:16.405Z,35
2016-05-25T12:26:16.579Z,35
2016-05-25T12:27:17.988Z,35
2016-05-25T12:28:16.772Z,35
2016-05-25T12:29:16.494Z,35
2016-05-25T12:30:17.230Z,35
2016-05-25T12:31:17.890Z,35
2016-05-25T12:32:21.329Z,25
2016-05-25T12:33:17.270Z,25
2016-05-25T12:34:16.991Z,25
2016-05-25T12:35:16.776Z,25
2016-05-25T12:36:16.746Z,25
2016-05-25T12:37:18.562Z,25
2016-05-25T12:38:16.502Z,25
2016-05-25T12:39:16.521Z,25
2016-05-25T12:40:17.054Z,25
2016-05-25T12:41:16.448Z,25
2016-05-25T12:42:19.106Z,25
2016-05-25T12:43:17.515Z,25
2016-05-25T12:44:16.050Z,25
2016-05-25T12:45:16.521Z,30
2016-05-25T12:46:17.430Z,35
2016-05-25T12:47:18.667Z,35
2016-05-25T12:48:16.842Z,40
2016-05-25T12:49:16.579Z,45
2016-05-25T12:50:16.910Z,50
2016-05-25T12:51:17.193Z,75
2016-05-25T12:52:19.430Z,75
2016-05-25T12:53:16.136Z,50
2016-05-25T12:54:16.842Z,60
2016-05-25T12:55:18.111Z,55
2016-05-25T12:56:17.347Z,55
2016-05-25T12:57:19.990Z,35
2016-05-25T12:58:16.385Z,30
2016-05-25T12:59:16.371Z,20
2016-05-25T13:00:16.124Z,15
2016-05-25T13:01:15.688Z,15
2016-05-25T13:02:19.255Z,20
2016-05-25T13:03:17.226Z,20
2016-05-25T13:04:29.493Z,25
2016-05-25T13:05:16.950Z,25
2016-05-25T13:06:15.921Z,25
2016-05-25T13:07:16.565Z,30
2016-05-25T13:08:29.926Z,35
2016-05-25T13:09:20.179Z,35
2016-05-25T13:10:16.228Z,25
2016-05-25T13:11:16.201Z,25
2016-05-25T13:12:16.281Z,25
2016-05-25T13:13:16.159Z,25
2016-05-25T13:14:29.146Z,25
2016-05-25T13:15:16.211Z,25
2016-05-25T13:16:15.776Z,25
2016-05-25T13:17:17.545Z,40
2016-05-25T13:18:16.422Z,95
2016-05-25T13:19:15.691Z,130
2016-05-25T13:20:17.397Z,130
2016-05-25T13:21:16.118Z,185
2016-05-25T13:22:30.527Z,360
2016-05-25T13:23:15.670Z,130
2016-05-25T13:24:16.438Z,450
2016-05-25T13:25:15.744Z,555
2016-05-25T13:26:15.582Z,120
2016-05-25T13:27:15.390Z,370
2016-05-25T13:28:15.745Z,205
2016-05-25T13:29:15.879Z,60
2016-05-25T13:30:16.246Z,45
2016-05-25T13:31:15.804Z,40
2016-05-25T13:32:17.565Z,30
2016-05-25T13:33:16.451Z,30
2016-05-25T13:34:15.853Z,30
2016-05-25T13:35:15.331Z,25
2016-05-25T13:36:16.040Z,25
2016-05-25T13:37:16.998Z,25
2016-05-25T13:38:14.832Z,30
2016-05-25T13:39:15.698Z,40
2016-05-25T13:40:15.360Z,30
2016-05-25T13:41:15.473Z,25
2016-05-25T13:42:17.492Z,25
2016-05-25T13:43:15.325Z,25
2016-05-25T13:44:15.063Z,25
2016-05-25T13:45:15.832Z,25
2016-05-25T13:46:15.553Z,30
2016-05-25T13:47:14.994Z,30
2016-05-25T13:48:17.559Z,30
2016-05-25T13:49:16.563Z,35
2016-05-25T13:50:15.222Z,45
2016-05-25T13:51:15.960Z,45
2016-05-25T13:52:15.727Z,40
2016-05-25T13:53:15.449Z,30
2016-05-25T13:54:16.593Z,30
2016-05-25T13:55:15.080Z,35
2016-05-25T13:56:18.316Z,35
2016-05-25T13:57:16.444Z,40
2016-05-25T13:58:15.432Z,40
2016-05-25T13:59:15.309Z,35
2016-05-25T14:00:16.968Z,30
2016-05-25T14:01:15.407Z,30
2016-05-25T14:02:15.598Z,25
2016-05-25T14:03:30.881Z,25
2016-05-25T14:04:15.166Z,25
2016-05-25T14:05:14.872Z,20
2016-05-25T14:06:15.889Z,20
2016-05-25T14:07:15.548Z,20
2016-05-25T14:08:14.630Z,15
2016-05-25T14:10:15.120Z,20
2016-05-25T14:11:15.013Z,15
2016-05-25T14:12:15.734Z,15
2016-05-25T14:13:15.314Z,15
2016-05-25T14:14:14.334Z,15
2016-05-25T14:16:15.230Z,15
2016-05-25T14:17:14.232Z,15
2016-05-25T14:18:14.922Z,15
2016-05-25T14:19:14.566Z,15
2016-05-25T14:20:14.943Z,15
2016-05-25T14:21:14.869Z,15
2016-05-25T14:22:15.746Z,15
2016-05-25T14:23:28.889Z,15
2016-05-25T14:24:14.188Z,15
2016-05-25T14:25:14.941Z,15
2016-05-25T14:26:14.537Z,15
2016-05-25T14:27:19.244Z,15
2016-05-25T14:28:15.559Z,15
2016-05-25T14:29:15.373Z,15
2016-05-25T14:30:15.079Z,20
2016-05-25T14:31:14.223Z,20
2016-05-25T14:32:14.726Z,20
2016-05-25T14:33:14.619Z,25
2016-05-25T14:34:14.840Z,20
2016-05-25T14:35:14.390Z,20
2016-05-25T14:36:14.408Z,20
2016-05-25T14:37:16.255Z,20
2016-05-25T14:38:14.539Z,25
2016-05-25T14:39:14.807Z,25
2016-05-25T14:40:13.810Z,25
2016-05-25T14:41:13.984Z,25
2016-05-25T14:42:15.706Z,25
2016-05-25T14:43:14.270Z,35
2016-05-25T14:44:14.461Z,30